Marion, Oregon
Current Conditions -  °F | °C
As of 11:56 PM on Thursday 18 Dec 2014 (Local Time) from KSLE Reporting Station
Light Rain Light Rain  
Wind Chill: 45°   Ceiling: 5000
Heat Index: 48°   Visibility: 10mi
Dew Point: 44°   Wind: 7mph
Humidity: 86%   Direction: 150°SSE
Pressure: 29.88"   Gusts: NA
Location:  44.75°N, 122.94°W
Report Text: KSLE 190756Z AUTO 15006KT 10SM -RA BKN050 OVC070 09/07 A2988 RMK AO2 SLP119 P0010 T00890067 401280033
Loading
Personal Weather Stations






























Interactive Weather Map New forecast layout! Learn more

10-Day Weather Forecast

Advertisements
Track Severe Weather on mobile